YSSY

Sydney Airport

Airport
ICAO code
YSSY
IATA Code
SYD
Summary
ICAO Region
APAC
ICAO Territory
Location

Mascot, New South Wales

Serving
Sydney
Elevation
21 ft
Coordinates
33° 56' 23" S , 151° 10' 32" E
KCC
Airport BS
Bird Strike
Metar
Observation
YSSY 260800Z AUTO 03010KT 9999 // NCD 18/12 Q1015
Station
Sydney Airport
Date/Time
2022-09-26 08:00:00
Wind direction
30°
Wind speed
10 kts
Lowest cloud amount
no clouds detected
Temperature
18°C
Dew point
12°C
Humidity
67%
QNH
1015 hPa
Weather condition
n/a

SKYbrary Partners:

Safety knowledge contributed by: